createdAt,value
2018-12-16T00:01:31.978Z,49.20
2018-12-16T00:04:00.909Z,49.80
2018-12-16T00:06:41.934Z,50.30
2018-12-16T00:09:11.245Z,44.15
2018-12-16T00:11:52.273Z,35.95
2018-12-16T00:14:21.184Z,41.25
2018-12-16T00:17:02.674Z,37.75
2018-12-16T00:22:11.654Z,34.83
2018-12-16T00:27:21.070Z,36.73
2018-12-16T00:29:51.846Z,42.20
2018-12-16T00:32:32.970Z,34.75
2018-12-16T00:35:01.863Z,32.45
2018-12-16T00:37:42.874Z,35.25
2018-12-16T00:40:13.289Z,38.30
2018-12-16T00:42:54.787Z,34.50
2018-12-16T00:45:23.718Z,36.48
2018-12-16T00:48:04.753Z,37.08
2018-12-16T00:50:33.625Z,40.50
2018-12-16T00:53:14.761Z,31.95
2018-12-16T00:55:43.729Z,39.45
2018-12-16T00:58:24.740Z,34.38
2018-12-16T01:00:53.664Z,41.37
2018-12-16T01:03:34.886Z,40.65
2018-12-16T01:06:03.882Z,38.95
2018-12-16T01:08:44.889Z,32.85
2018-12-16T01:11:14.046Z,40.55
2018-12-16T01:13:55.211Z,30.65
2018-12-16T01:16:24.093Z,34.35
2018-12-16T01:19:05.254Z,35.95
2018-12-16T01:21:34.125Z,33.88
2018-12-16T01:24:15.149Z,38.95
2018-12-16T01:26:45.892Z,34.18
2018-12-16T01:29:27.029Z,29.37
2018-12-16T01:31:56.149Z,38.40
2018-12-16T01:34:37.668Z,28.25
2018-12-16T01:37:07.323Z,29.70
2018-12-16T01:39:48.365Z,31.97
2018-12-16T01:42:19.124Z,30.77
2018-12-16T01:45:00.398Z,31.12
2018-12-16T01:47:29.279Z,32.35
2018-12-16T01:50:10.558Z,32.00
2018-12-16T01:52:39.474Z,28.40
2018-12-16T01:55:20.636Z,30.25
2018-12-16T01:57:49.490Z,29.55
2018-12-16T02:00:32.069Z,29.57
2018-12-16T02:03:00.931Z,28.10
2018-12-16T02:05:42.006Z,26.15
2018-12-16T02:08:10.966Z,25.45
2018-12-16T02:10:51.966Z,31.68
2018-12-16T02:13:20.853Z,30.45
2018-12-16T02:16:01.864Z,30.00
2018-12-16T02:18:30.718Z,29.60
2018-12-16T02:21:11.710Z,27.00
2018-12-16T02:23:42.462Z,30.17
2018-12-16T02:26:23.481Z,28.47
2018-12-16T02:28:52.349Z,32.95
2018-12-16T02:31:33.362Z,28.45
2018-12-16T02:34:02.745Z,28.12
2018-12-16T02:36:43.758Z,23.52
2018-12-16T02:39:12.609Z,29.55
2018-12-16T02:41:53.679Z,23.75
2018-12-16T02:44:22.849Z,28.35
2018-12-16T02:47:03.873Z,27.07
2018-12-16T02:49:32.733Z,25.32
2018-12-16T02:52:13.740Z,33.70
2018-12-16T02:54:42.588Z,28.52
2018-12-16T02:57:23.655Z,31.07
2018-12-16T02:59:52.503Z,39.13
2018-12-16T03:02:33.666Z,29.50
2018-12-16T03:05:03.606Z,35.33
2018-12-16T03:07:44.610Z,30.30
2018-12-16T03:10:13.745Z,26.10
2018-12-16T03:12:54.759Z,26.37
2018-12-16T03:15:23.620Z,30.20
2018-12-16T03:18:04.683Z,26.73
2018-12-16T03:20:33.541Z,26.20
2018-12-16T03:23:14.578Z,25.27
2018-12-16T03:25:43.931Z,23.40
2018-12-16T03:28:24.939Z,23.90
2018-12-16T03:30:53.888Z,29.52
2018-12-16T03:33:35.045Z,25.43
2018-12-16T03:36:03.907Z,23.18
2018-12-16T03:38:44.890Z,25.05
2018-12-16T03:41:13.753Z,22.80
2018-12-16T03:43:54.812Z,24.63
2018-12-16T03:46:23.768Z,21.73
2018-12-16T03:49:04.802Z,23.30
2018-12-16T03:51:34.569Z,24.27
2018-12-16T03:54:15.662Z,24.07
2018-12-16T03:56:44.539Z,20.45
2018-12-16T03:59:28.163Z,22.58
2018-12-16T04:01:58.016Z,26.50
2018-12-16T04:04:39.076Z,26.90
2018-12-16T04:07:08.134Z,23.18
2018-12-16T04:09:49.154Z,24.57
2018-12-16T04:12:18.211Z,29.63
2018-12-16T04:14:59.326Z,27.58
2018-12-16T04:17:28.296Z,25.00
2018-12-16T04:20:09.553Z,26.15
2018-12-16T04:22:38.415Z,20.85
2018-12-16T04:25:21.155Z,22.30
2018-12-16T04:27:50.179Z,27.15
2018-12-16T04:30:31.271Z,24.25
2018-12-16T04:33:00.225Z,19.23
2018-12-16T04:35:41.342Z,21.12
2018-12-16T04:38:10.304Z,21.93
2018-12-16T04:40:51.369Z,19.37
2018-12-16T04:43:20.406Z,20.12
2018-12-16T04:46:01.422Z,25.72
2018-12-16T04:48:42.545Z,22.25
2018-12-16T04:51:11.403Z,24.70
2018-12-16T04:53:52.494Z,24.63
2018-12-16T04:56:21.359Z,23.25
2018-12-16T04:59:02.351Z,22.65
2018-12-16T05:01:31.311Z,21.62
2018-12-16T05:04:12.340Z,22.37
2018-12-16T05:06:41.254Z,24.10
2018-12-16T05:09:22.390Z,20.50
2018-12-16T05:11:52.969Z,19.45
2018-12-16T05:14:34.546Z,23.67
2018-12-16T05:17:03.507Z,22.25
2018-12-16T05:19:44.473Z,27.90
2018-12-16T05:22:13.354Z,26.00
2018-12-16T05:24:54.445Z,23.07
2018-12-16T05:27:23.293Z,27.00
2018-12-16T05:30:04.826Z,21.57
2018-12-16T05:32:35.597Z,22.85
2018-12-16T05:35:16.642Z,25.05
2018-12-16T05:37:45.697Z,25.05
2018-12-16T05:40:26.694Z,24.23
2018-12-16T05:42:57.449Z,26.70
2018-12-16T05:45:38.533Z,24.60
2018-12-16T05:48:07.393Z,22.62
2018-12-16T05:50:48.360Z,27.10
2018-12-16T05:53:17.257Z,24.75
2018-12-16T05:55:58.244Z,22.02
2018-12-16T05:58:27.101Z,32.30
2018-12-16T06:01:08.088Z,26.10
2018-12-16T06:03:36.940Z,21.62
2018-12-16T06:06:17.916Z,29.45
2018-12-16T06:08:46.907Z,24.92
2018-12-16T06:11:27.893Z,24.80
2018-12-16T06:13:56.750Z,28.80
2018-12-16T06:16:37.744Z,26.37
2018-12-16T06:19:06.624Z,27.48
2018-12-16T06:21:47.627Z,27.75
2018-12-16T06:24:16.501Z,27.30
2018-12-16T06:26:57.461Z,28.75
2018-12-16T06:29:26.401Z,22.50
2018-12-16T06:32:08.473Z,29.00
2018-12-16T06:34:37.438Z,21.60
2018-12-16T06:37:18.438Z,20.50
2018-12-16T06:39:47.321Z,28.90
2018-12-16T06:42:28.328Z,35.40
2018-12-16T06:44:57.274Z,27.75
2018-12-16T06:47:38.254Z,27.27
2018-12-16T06:50:07.687Z,28.90
2018-12-16T06:52:48.799Z,33.18
2018-12-16T06:55:17.918Z,35.05
2018-12-16T06:57:59.018Z,28.35
2018-12-16T07:00:28.527Z,26.65
2018-12-16T07:03:09.531Z,30.85
2018-12-16T07:05:38.494Z,30.17
2018-12-16T07:08:19.510Z,34.70
2018-12-16T07:10:48.456Z,32.53
2018-12-16T07:13:29.529Z,34.58
2018-12-16T07:15:59.294Z,32.53
2018-12-16T07:18:40.315Z,34.85
2018-12-16T07:21:09.177Z,35.28
2018-12-16T07:23:50.259Z,34.25
2018-12-16T07:26:19.139Z,26.77
2018-12-16T07:29:00.168Z,32.35
2018-12-16T07:31:30.161Z,30.30
2018-12-16T07:34:11.433Z,33.58
2018-12-16T07:36:40.577Z,27.82
2018-12-16T07:39:21.662Z,30.12
2018-12-16T07:41:50.589Z,28.15
2018-12-16T07:44:31.653Z,24.82
2018-12-16T07:47:00.544Z,28.15
2018-12-16T07:49:41.557Z,26.80
2018-12-16T07:52:10.546Z,33.55
2018-12-16T07:54:51.632Z,29.27
2018-12-16T07:57:21.998Z,28.42
2018-12-16T08:00:04.352Z,31.30
2018-12-16T08:02:34.238Z,34.70
2018-12-16T08:05:15.320Z,28.65
2018-12-16T08:07:44.201Z,33.23
2018-12-16T08:10:25.180Z,33.13
2018-12-16T08:12:55.754Z,31.30
2018-12-16T08:15:36.786Z,28.42
2018-12-16T08:18:05.641Z,27.80
2018-12-16T08:20:46.657Z,31.77
2018-12-16T08:23:15.513Z,33.80
2018-12-16T08:25:56.534Z,30.32
2018-12-16T08:28:25.926Z,27.73
2018-12-16T08:31:07.506Z,26.15
2018-12-16T08:33:36.505Z,38.20
2018-12-16T08:36:17.672Z,30.60
2018-12-16T08:38:46.589Z,29.82
2018-12-16T08:41:27.607Z,36.95
2018-12-16T08:43:56.486Z,38.23
2018-12-16T08:46:37.506Z,44.67
2018-12-16T08:49:06.374Z,30.75
2018-12-16T08:51:47.390Z,31.57
2018-12-16T08:54:16.654Z,27.98
2018-12-16T08:56:57.962Z,24.80
2018-12-16T08:59:28.500Z,28.10
2018-12-16T09:02:09.775Z,25.23
2018-12-16T09:04:38.882Z,30.40
2018-12-16T09:07:19.881Z,29.05
2018-12-16T09:10:01.692Z,27.00
2018-12-16T09:15:14.878Z,29.25
2018-12-16T09:17:43.941Z,29.57
2018-12-16T09:20:25.022Z,28.17
2018-12-16T09:22:53.857Z,30.50
2018-12-16T09:25:35.022Z,37.10
2018-12-16T09:28:03.862Z,31.65
2018-12-16T09:30:44.862Z,33.13
2018-12-16T09:33:13.705Z,31.42
2018-12-16T09:35:55.180Z,36.60
2018-12-16T09:38:24.749Z,32.33
2018-12-16T09:41:06.394Z,35.60
2018-12-16T09:43:35.748Z,35.58
2018-12-16T09:46:17.201Z,33.65
2018-12-16T09:48:48.157Z,27.05
2018-12-16T09:51:29.262Z,29.82
2018-12-16T09:53:59.074Z,36.03
2018-12-16T09:56:40.141Z,36.75
2018-12-16T09:59:10.932Z,38.83
2018-12-16T10:01:54.733Z,30.57
2018-12-16T10:04:23.583Z,35.80
2018-12-16T10:07:04.785Z,30.68
2018-12-16T10:09:33.737Z,31.42
2018-12-16T10:12:15.366Z,35.35
2018-12-16T10:14:44.302Z,30.50
2018-12-16T10:17:25.343Z,33.78
2018-12-16T10:19:54.229Z,30.77
2018-12-16T10:22:35.264Z,33.67
2018-12-16T10:25:06.041Z,26.93
2018-12-16T10:27:47.084Z,33.88
2018-12-16T10:30:16.847Z,34.88
2018-12-16T10:32:57.942Z,29.57
2018-12-16T10:35:26.897Z,31.23
2018-12-16T10:38:08.218Z,26.35
2018-12-16T10:40:37.826Z,34.23
2018-12-16T10:43:18.914Z,32.03
2018-12-16T10:45:47.784Z,27.93
2018-12-16T10:48:28.805Z,35.75
2018-12-16T10:50:57.833Z,30.77
2018-12-16T10:53:38.825Z,30.90
2018-12-16T10:56:07.691Z,30.37
2018-12-16T10:58:48.693Z,25.85
2018-12-16T11:01:23.234Z,29.05
2018-12-16T11:04:04.481Z,27.98
2018-12-16T11:06:35.262Z,24.23
2018-12-16T11:09:16.256Z,29.32
2018-12-16T11:11:45.117Z,26.17
2018-12-16T11:14:26.130Z,24.25
2018-12-16T11:16:54.984Z,28.92
2018-12-16T11:19:24.369Z,27.60
2018-12-16T11:22:05.398Z,23.87
2018-12-16T11:24:34.272Z,28.57
2018-12-16T11:27:15.277Z,21.52
2018-12-16T11:29:44.230Z,23.45
2018-12-16T11:32:25.233Z,25.15
2018-12-16T11:34:54.407Z,28.77
2018-12-16T11:37:35.437Z,22.60
2018-12-16T11:40:05.437Z,27.80
2018-12-16T11:42:46.462Z,27.20
2018-12-16T11:45:15.385Z,32.40
2018-12-16T11:47:56.398Z,30.37
2018-12-16T11:50:27.126Z,30.32
2018-12-16T11:53:08.110Z,29.85
2018-12-16T11:55:37.326Z,32.00
2018-12-16T11:58:24.969Z,32.30
2018-12-16T12:00:53.842Z,31.75
2018-12-16T12:03:35.314Z,35.68
2018-12-16T12:06:04.329Z,32.48
2018-12-16T12:08:45.363Z,32.73
2018-12-16T12:11:14.407Z,27.48
2018-12-16T12:13:55.681Z,35.40
2018-12-16T12:16:24.630Z,28.17
2018-12-16T12:19:05.672Z,35.52
2018-12-16T12:21:34.542Z,29.07
2018-12-16T12:24:15.667Z,32.13
2018-12-16T12:26:44.533Z,33.90
2018-12-16T12:29:25.637Z,30.43
2018-12-16T12:31:54.958Z,38.92
2018-12-16T12:34:36.001Z,34.83
2018-12-16T12:37:05.373Z,33.13
2018-12-16T12:39:46.374Z,35.28
2018-12-16T12:42:15.340Z,38.60
2018-12-16T12:44:56.388Z,31.25
2018-12-16T12:47:25.435Z,29.65
2018-12-16T12:50:08.051Z,38.17
2018-12-16T12:52:36.940Z,30.48
2018-12-16T12:55:18.046Z,33.35
2018-12-16T12:57:46.944Z,30.45
2018-12-16T13:00:29.842Z,32.33
2018-12-16T13:02:59.710Z,41.37
2018-12-16T13:05:40.859Z,32.88
2018-12-16T13:08:09.735Z,33.08
2018-12-16T13:10:50.803Z,29.07
2018-12-16T13:13:19.732Z,35.92
2018-12-16T13:16:00.785Z,30.45
2018-12-16T13:18:29.693Z,32.95
2018-12-16T13:21:10.729Z,32.93
2018-12-16T13:23:39.886Z,32.35
2018-12-16T13:26:21.052Z,31.30
2018-12-16T13:28:49.933Z,34.50
2018-12-16T13:31:31.194Z,34.53
2018-12-16T13:34:01.208Z,35.60
2018-12-16T13:36:42.321Z,37.80
2018-12-16T13:39:11.192Z,31.70
2018-12-16T13:41:52.679Z,34.40
2018-12-16T13:44:21.910Z,34.83
2018-12-16T13:47:02.995Z,31.70
2018-12-16T13:49:31.869Z,36.95
2018-12-16T13:52:12.870Z,28.20
2018-12-16T13:54:41.825Z,34.88
2018-12-16T13:57:22.892Z,29.10
2018-12-16T13:59:51.788Z,36.65
2018-12-16T14:02:32.964Z,36.25
2018-12-16T14:05:02.026Z,33.70
2018-12-16T14:07:43.082Z,29.40
2018-12-16T14:10:11.975Z,30.65
2018-12-16T14:12:52.993Z,34.08
2018-12-16T14:15:21.827Z,35.10
2018-12-16T14:18:02.846Z,38.42
2018-12-16T14:20:31.762Z,41.25
2018-12-16T14:23:12.786Z,35.50
2018-12-16T14:25:47.819Z,38.90
2018-12-16T14:28:24.926Z,36.73
2018-12-16T14:30:53.901Z,38.73
2018-12-16T14:33:34.937Z,35.23
2018-12-16T14:36:04.687Z,36.25
2018-12-16T14:38:45.878Z,36.25
2018-12-16T14:41:14.744Z,29.32
2018-12-16T14:43:55.853Z,33.08
2018-12-16T14:46:24.723Z,38.63
2018-12-16T14:49:05.744Z,32.98
2018-12-16T14:51:34.746Z,30.95
2018-12-16T14:54:15.866Z,31.55
2018-12-16T14:56:44.824Z,36.13
2018-12-16T14:59:28.429Z,35.55
2018-12-16T15:01:57.277Z,37.17
2018-12-16T15:04:38.369Z,33.70
2018-12-16T15:07:07.280Z,35.88
2018-12-16T15:09:48.287Z,33.63
2018-12-16T15:12:17.149Z,28.80
2018-12-16T15:14:58.454Z,35.15
2018-12-16T15:17:27.613Z,33.95
2018-12-16T15:20:08.995Z,38.83
2018-12-16T15:22:39.746Z,33.33
2018-12-16T15:25:21.549Z,32.60
2018-12-16T15:27:50.467Z,33.38
2018-12-16T15:30:31.544Z,34.45
2018-12-16T15:33:00.385Z,38.70
2018-12-16T15:35:41.466Z,35.58
2018-12-16T15:38:10.313Z,36.70
2018-12-16T15:40:51.330Z,33.45
2018-12-16T15:43:20.173Z,29.50
2018-12-16T15:46:01.291Z,36.00
2018-12-16T15:48:30.141Z,38.23
2018-12-16T15:51:11.142Z,34.95
2018-12-16T15:53:40.125Z,30.70
2018-12-16T15:56:21.736Z,38.88
2018-12-16T15:58:50.700Z,35.55
2018-12-16T16:01:31.765Z,38.28
2018-12-16T16:04:00.737Z,40.92
2018-12-16T16:06:41.739Z,36.48
2018-12-16T16:09:10.598Z,34.88
2018-12-16T16:11:51.626Z,38.55
2018-12-16T16:14:20.579Z,32.05
2018-12-16T16:17:01.574Z,35.83
2018-12-16T16:19:32.386Z,30.97
2018-12-16T16:22:13.458Z,37.20
2018-12-16T16:24:42.327Z,32.80
2018-12-16T16:27:23.451Z,33.55
2018-12-16T16:29:52.317Z,32.73
2018-12-16T16:32:33.353Z,37.42
2018-12-16T16:35:02.354Z,30.82
2018-12-16T16:37:43.828Z,40.48
2018-12-16T16:40:13.259Z,40.90
2018-12-16T16:42:54.383Z,41.98
2018-12-16T16:45:23.245Z,46.80
2018-12-16T16:48:04.290Z,40.20
2018-12-16T16:50:33.335Z,43.42
2018-12-16T16:53:14.401Z,45.05
2018-12-16T16:55:43.452Z,45.58
2018-12-16T16:58:24.869Z,46.35
2018-12-16T17:00:53.718Z,51.15
2018-12-16T17:03:35.074Z,55.25
2018-12-16T17:06:03.978Z,45.63
2018-12-16T17:08:44.983Z,52.05
2018-12-16T17:11:14.894Z,49.63
2018-12-16T17:13:58.518Z,42.58
2018-12-16T17:16:27.718Z,42.78
2018-12-16T17:19:09.108Z,48.65
2018-12-16T17:21:39.501Z,42.27
2018-12-16T17:24:20.752Z,44.58
2018-12-16T17:26:49.718Z,44.40
2018-12-16T17:29:30.809Z,47.53
2018-12-16T17:31:59.650Z,46.05
2018-12-16T17:34:40.752Z,43.95
2018-12-16T17:37:09.664Z,54.42
2018-12-16T17:39:50.709Z,60.52
2018-12-16T17:42:19.597Z,56.65
2018-12-16T17:45:00.692Z,54.67
2018-12-16T17:47:30.173Z,67.55
2018-12-16T17:50:11.332Z,67.60
2018-12-16T17:52:40.299Z,61.02
2018-12-16T17:55:21.343Z,75.60
2018-12-16T17:57:52.168Z,73.12
2018-12-16T18:00:33.326Z,84.22
2018-12-16T18:03:02.225Z,77.00
2018-12-16T18:05:43.262Z,78.72
2018-12-16T18:08:12.127Z,76.22
2018-12-16T18:10:53.210Z,66.10
2018-12-16T18:13:22.078Z,61.28
2018-12-16T18:16:03.601Z,66.95
2018-12-16T18:18:32.716Z,66.90
2018-12-16T18:21:13.863Z,83.78
2018-12-16T18:23:42.949Z,83.37
2018-12-16T18:26:24.446Z,73.95
2018-12-16T18:28:53.758Z,75.83
2018-12-16T18:31:35.104Z,68.47
2018-12-16T18:34:04.066Z,70.25
2018-12-16T18:36:45.097Z,72.87
2018-12-16T18:39:14.338Z,56.80
2018-12-16T18:41:56.090Z,57.33
2018-12-16T18:44:25.032Z,66.72
2018-12-16T18:47:06.181Z,62.08
2018-12-16T18:49:35.198Z,71.33
2018-12-16T18:52:16.221Z,67.67
2018-12-16T18:54:45.389Z,66.25
2018-12-16T18:57:26.429Z,79.30
2018-12-16T18:59:55.403Z,79.00
2018-12-16T19:02:39.617Z,96.82
2018-12-16T19:05:08.869Z,83.90
2018-12-16T19:07:49.935Z,78.57
2018-12-16T19:10:18.918Z,71.82
2018-12-16T19:12:59.933Z,57.78
2018-12-16T19:15:28.844Z,57.70
2018-12-16T19:18:10.198Z,61.35
2018-12-16T19:20:39.240Z,54.03
2018-12-16T19:23:20.699Z,60.20
2018-12-16T19:25:49.626Z,62.03
2018-12-16T19:28:30.706Z,54.98
2018-12-16T19:30:59.573Z,54.60
2018-12-16T19:33:40.605Z,51.10
2018-12-16T19:36:09.484Z,55.43
2018-12-16T19:38:50.874Z,58.73
2018-12-16T19:41:21.147Z,55.78
2018-12-16T19:44:02.221Z,49.83
2018-12-16T19:46:31.235Z,50.05
2018-12-16T19:49:12.245Z,57.55
2018-12-16T19:51:41.205Z,51.53
2018-12-16T19:54:22.864Z,50.70
2018-12-16T19:56:52.018Z,48.38
2018-12-16T19:59:33.064Z,48.13
2018-12-16T20:02:01.971Z,52.83
2018-12-16T20:04:47.449Z,50.58
2018-12-16T20:07:16.927Z,50.38
2018-12-16T20:09:57.988Z,48.38
2018-12-16T20:12:26.974Z,54.45
2018-12-16T20:15:08.325Z,51.75
2018-12-16T20:17:37.584Z,48.68
2018-12-16T20:20:19.031Z,67.15
2018-12-16T20:22:48.240Z,56.30
2018-12-16T20:25:29.287Z,58.68
2018-12-16T20:27:58.266Z,54.98
2018-12-16T20:30:39.285Z,60.65
2018-12-16T20:33:08.130Z,68.20
2018-12-16T20:35:49.238Z,51.20
2018-12-16T20:38:18.470Z,57.38
2018-12-16T20:40:59.671Z,62.08
2018-12-16T20:43:28.557Z,52.95
2018-12-16T20:46:09.613Z,59.05
2018-12-16T20:48:38.482Z,47.08
2018-12-16T20:51:19.536Z,48.23
2018-12-16T20:53:48.995Z,51.83
2018-12-16T20:56:30.145Z,52.75
2018-12-16T20:58:58.995Z,54.20
2018-12-16T21:01:40.153Z,51.42
2018-12-16T21:04:09.134Z,47.27
2018-12-16T21:06:50.317Z,56.20
2018-12-16T21:09:19.317Z,48.78
2018-12-16T21:12:00.535Z,52.30
2018-12-16T21:14:35.652Z,49.60
2018-12-16T21:17:28.395Z,46.15
2018-12-16T21:19:57.980Z,48.58
2018-12-16T21:22:39.114Z,50.55
2018-12-16T21:25:08.465Z,54.25
2018-12-16T21:27:49.520Z,56.63
2018-12-16T21:30:19.917Z,54.05
2018-12-16T21:33:00.937Z,62.05
2018-12-16T21:35:29.950Z,59.58
2018-12-16T21:38:11.066Z,55.83
2018-12-16T21:40:39.949Z,54.15
2018-12-16T21:43:21.017Z,55.15
2018-12-16T21:45:50.478Z,65.17
2018-12-16T21:48:31.501Z,57.80
2018-12-16T21:51:00.458Z,57.45
2018-12-16T21:53:41.466Z,63.83
2018-12-16T21:56:10.731Z,66.12
2018-12-16T21:58:51.829Z,59.35
2018-12-16T22:01:20.703Z,63.00
2018-12-16T22:04:01.717Z,63.58
2018-12-16T22:06:30.641Z,64.25
2018-12-16T22:09:11.908Z,68.78
2018-12-16T22:11:40.958Z,62.58
2018-12-16T22:14:22.058Z,59.93
2018-12-16T22:16:50.894Z,60.33
2018-12-16T22:19:31.896Z,55.03
2018-12-16T22:22:00.861Z,51.58
2018-12-16T22:24:45.184Z,52.78
2018-12-16T22:27:14.035Z,51.68
2018-12-16T22:29:55.037Z,52.27
2018-12-16T22:32:24.286Z,60.58
2018-12-16T22:35:05.586Z,62.62
2018-12-16T22:37:34.601Z,66.35
2018-12-16T22:40:15.764Z,55.52
2018-12-16T22:42:46.527Z,53.85
2018-12-16T22:45:27.617Z,48.83
2018-12-16T22:47:56.574Z,49.53
2018-12-16T22:50:37.569Z,46.98
2018-12-16T22:53:06.457Z,49.65
2018-12-16T22:55:47.557Z,54.27
2018-12-16T22:58:16.414Z,61.85
2018-12-16T23:01:03.261Z,55.55
2018-12-16T23:03:32.105Z,49.03
2018-12-16T23:06:13.134Z,53.25
2018-12-16T23:08:41.990Z,51.48
2018-12-16T23:11:23.022Z,54.13
2018-12-16T23:13:51.970Z,50.83
2018-12-16T23:16:33.025Z,51.42
2018-12-16T23:19:01.897Z,50.03
2018-12-16T23:21:42.894Z,51.45
2018-12-16T23:24:11.866Z,53.17
2018-12-16T23:26:53.565Z,57.33
2018-12-16T23:29:22.426Z,55.30
2018-12-16T23:32:03.465Z,60.08
2018-12-16T23:34:32.764Z,51.23
2018-12-16T23:37:13.852Z,54.05
2018-12-16T23:39:42.686Z,52.15
2018-12-16T23:42:23.719Z,57.45
2018-12-16T23:44:52.589Z,52.88
2018-12-16T23:47:33.613Z,68.12
2018-12-16T23:50:02.507Z,49.03
2018-12-16T23:52:43.574Z,47.65
2018-12-16T23:55:12.458Z,54.85
2018-12-16T23:57:53.479Z,49.88
